Terminal Aerodrome Forecast
Issued by NWS

Home | Current Version | Previous Version | Text Only | Print | Product List | Glossary On
Versions: 1 2 3 4 5 6 7 8 9 10 11 12 13 14
030
FTUS43 KEAX 232321
TAFMKC
TAF
KMKC 232321Z 2400/2424 18012KT P6SM FEW110
     FM240400 18011KT P6SM SCT200 WS020/19050KT
     FM241300 19016KT P6SM VCSH BKN070
     FM241800 18013KT P6SM OVC025=

USA.gov is the U.S. government's official web portal to all federal, state and local government web resources and services.